createdAt,value
2018-04-18T00:00:16.785Z,83.0
2018-04-18T00:01:16.822Z,83.1
2018-04-18T00:02:17.114Z,83.2
2018-04-18T00:03:16.371Z,83.2
2018-04-18T00:04:16.626Z,83.1
2018-04-18T00:05:16.878Z,83.1
2018-04-18T00:06:17.141Z,83.1
2018-04-18T00:07:16.408Z,83.0
2018-04-18T00:08:16.835Z,83.0
2018-04-18T00:09:17.096Z,83.1
2018-04-18T00:10:16.364Z,83.1
2018-04-18T00:11:16.413Z,83.2
2018-04-18T00:12:16.681Z,83.1
2018-04-18T00:13:16.946Z,83.2
2018-04-18T00:14:17.227Z,83.2
2018-04-18T00:15:16.497Z,83.2
2018-04-18T00:16:16.765Z,83.8
2018-04-18T00:17:17.035Z,83.8
2018-04-18T00:18:16.311Z,84.0
2018-04-18T00:19:16.598Z,84.0
2018-04-18T00:20:16.866Z,83.8
2018-04-18T00:21:16.889Z,83.8
2018-04-18T00:22:17.157Z,83.9
2018-04-18T00:23:16.428Z,84.0
2018-04-18T00:24:16.676Z,84.0
2018-04-18T00:25:16.970Z,84.1
2018-04-18T00:26:17.237Z,84.2
2018-04-18T00:27:16.498Z,84.0
2018-04-18T00:28:16.750Z,84.0
2018-04-18T00:29:17.012Z,84.1
2018-04-18T00:30:16.294Z,83.8
2018-04-18T00:31:16.332Z,83.9
2018-04-18T00:32:16.579Z,83.9
2018-04-18T00:33:16.848Z,84.0
2018-04-18T00:34:17.109Z,83.8
2018-04-18T00:35:16.372Z,84.0
2018-04-18T00:36:16.645Z,83.9
2018-04-18T00:37:17.007Z,84.0
2018-04-18T00:38:16.277Z,84.0
2018-04-18T00:39:16.552Z,83.8
2018-04-18T00:40:16.820Z,83.9
2018-04-18T00:41:16.872Z,84.3
2018-04-18T00:42:17.129Z,84.3
2018-04-18T00:43:16.393Z,84.2
2018-04-18T00:44:16.660Z,84.5
2018-04-18T00:45:16.927Z,84.5
2018-04-18T00:46:17.188Z,84.6
2018-04-18T00:47:16.451Z,84.7
2018-04-18T00:48:16.715Z,84.7
2018-04-18T00:49:16.973Z,84.8
2018-04-18T00:50:17.250Z,84.8
2018-04-18T00:51:16.294Z,85.0
2018-04-18T00:52:16.553Z,85.0
2018-04-18T00:53:16.819Z,85.2
2018-04-18T00:54:17.081Z,85.2
2018-04-18T00:55:16.338Z,85.1
2018-04-18T00:56:16.613Z,85.2
2018-04-18T00:57:16.873Z,85.2
2018-04-18T00:58:17.140Z,85.2
2018-04-18T00:59:16.400Z,85.1
2018-04-18T01:00:16.658Z,85.2
2018-04-18T01:01:16.708Z,85.2
2018-04-18T01:02:16.962Z,85.5
2018-04-18T01:03:17.223Z,85.5
2018-04-18T01:04:16.483Z,85.5
2018-04-18T01:05:16.733Z,86.0
2018-04-18T01:06:17.012Z,86.0
2018-04-18T01:07:16.271Z,86.0
2018-04-18T01:08:16.532Z,86.1
2018-04-18T01:09:16.795Z,86.0
2018-04-18T01:10:17.059Z,85.9
2018-04-18T01:11:17.463Z,86.0
2018-04-18T01:12:16.725Z,86.0
2018-04-18T01:13:16.987Z,86.0
2018-04-18T01:14:17.251Z,86.0
2018-04-18T01:15:16.530Z,86.0
2018-04-18T01:16:16.793Z,86.2
2018-04-18T01:17:17.077Z,86.2
2018-04-18T01:18:16.340Z,86.3
2018-04-18T01:19:16.599Z,86.3
2018-04-18T01:20:16.868Z,86.7
2018-04-18T01:21:16.915Z,86.5
2018-04-18T01:22:17.183Z,86.5
2018-04-18T01:23:16.445Z,86.5
2018-04-18T01:24:16.716Z,86.5
2018-04-18T01:25:16.989Z,86.7
2018-04-18T01:26:17.260Z,86.8
2018-04-18T01:27:16.520Z,86.8
2018-04-18T01:28:16.786Z,86.8
2018-04-18T01:29:17.048Z,86.8
2018-04-18T01:30:16.316Z,87.0
2018-04-18T01:31:16.369Z,86.9
2018-04-18T01:32:16.637Z,86.9
2018-04-18T01:33:16.900Z,86.6
2018-04-18T01:34:17.164Z,86.5
2018-04-18T01:35:16.433Z,86.5
2018-04-18T01:36:16.696Z,86.5
2018-04-18T01:37:16.960Z,86.5
2018-04-18T01:38:17.227Z,86.5
2018-04-18T01:39:16.495Z,86.5
2018-04-18T01:40:16.761Z,86.5
2018-04-18T01:41:16.805Z,86.7
2018-04-18T01:42:17.066Z,86.5
2018-04-18T01:43:16.327Z,86.5
2018-04-18T01:44:16.588Z,86.9
2018-04-18T01:45:16.866Z,86.5
2018-04-18T01:46:17.355Z,86.6
2018-04-18T01:47:16.618Z,86.7
2018-04-18T01:48:16.887Z,86.8
2018-04-18T01:49:17.147Z,86.7
2018-04-18T01:50:16.412Z,86.7
2018-04-18T01:51:16.457Z,86.8
2018-04-18T01:52:16.720Z,86.9
2018-04-18T01:53:16.982Z,86.5
2018-04-18T01:54:17.247Z,86.5
2018-04-18T01:55:16.512Z,86.5
2018-04-18T01:56:16.787Z,86.3
2018-04-18T01:57:17.053Z,86.5
2018-04-18T01:58:16.314Z,86.7
2018-04-18T01:59:16.654Z,86.6
2018-04-18T02:00:16.937Z,86.6
2018-04-18T02:01:16.976Z,86.7
2018-04-18T02:02:17.236Z,87.0
2018-04-18T02:03:16.497Z,87.0
2018-04-18T02:04:16.776Z,87.1
2018-04-18T02:05:17.039Z,87.1
2018-04-18T02:06:16.309Z,87.3
2018-04-18T02:07:16.586Z,87.3
2018-04-18T02:08:16.842Z,87.2
2018-04-18T02:09:17.097Z,87.2
2018-04-18T02:10:16.368Z,87.0
2018-04-18T02:11:16.414Z,87.0
2018-04-18T02:12:16.674Z,86.9
2018-04-18T02:13:16.934Z,87.0
2018-04-18T02:14:17.201Z,87.0
2018-04-18T02:15:16.465Z,87.0
2018-04-18T02:16:16.710Z,87.0
2018-04-18T02:17:16.967Z,87.0
2018-04-18T02:18:17.383Z,87.2
2018-04-18T02:19:16.645Z,87.2
2018-04-18T02:20:16.910Z,87.2
2018-04-18T02:21:16.953Z,87.2
2018-04-18T02:22:17.224Z,87.3
2018-04-18T02:23:16.489Z,87.2
2018-04-18T02:24:16.758Z,87.2
2018-04-18T02:25:17.027Z,87.2
2018-04-18T02:26:16.288Z,87.3
2018-04-18T02:27:16.559Z,87.4
2018-04-18T02:28:16.844Z,87.4
2018-04-18T02:29:17.106Z,87.2
2018-04-18T02:30:16.368Z,86.8
2018-04-18T02:31:16.417Z,87.0
2018-04-18T02:32:16.955Z,87.0
2018-04-18T02:33:17.240Z,87.0
2018-04-18T02:34:16.517Z,86.9
2018-04-18T02:35:16.784Z,86.8
2018-04-18T02:36:17.046Z,86.9
2018-04-18T02:37:16.329Z,86.7
2018-04-18T02:38:16.596Z,86.7
2018-04-18T02:39:16.858Z,86.7
2018-04-18T02:40:17.120Z,86.8
2018-04-18T02:41:17.169Z,86.7
2018-04-18T02:42:16.449Z,86.9
2018-04-18T02:43:16.712Z,87.0
2018-04-18T02:44:16.975Z,87.2
2018-04-18T02:45:17.244Z,87.2
2018-04-18T02:46:16.501Z,87.6
2018-04-18T02:47:16.769Z,87.2
2018-04-18T02:48:17.041Z,87.2
2018-04-18T02:49:16.311Z,87.3
2018-04-18T02:50:16.578Z,87.3
2018-04-18T02:51:16.612Z,87.5
2018-04-18T02:52:16.888Z,87.5
2018-04-18T02:53:17.207Z,87.6
2018-04-18T02:54:16.470Z,87.7
2018-04-18T02:55:16.745Z,87.7
2018-04-18T02:56:17.025Z,88.0
2018-04-18T02:57:16.319Z,88.4
2018-04-18T02:58:16.608Z,88.5
2018-04-18T02:59:16.879Z,89.1
2018-04-18T03:00:17.148Z,89.0
2018-04-18T03:01:17.213Z,88.9
2018-04-18T03:02:16.491Z,88.4
2018-04-18T03:03:16.755Z,89.0
2018-04-18T03:04:17.025Z,89.0
2018-04-18T03:05:16.295Z,88.5
2018-04-18T03:06:16.563Z,89.0
2018-04-18T03:07:16.841Z,89.0
2018-04-18T03:08:17.106Z,89.0
2018-04-18T03:09:16.372Z,89.2
2018-04-18T03:10:16.647Z,89.0
2018-04-18T03:11:16.682Z,88.9
2018-04-18T03:12:16.932Z,88.8
2018-04-18T03:13:17.201Z,88.8
2018-04-18T03:14:16.466Z,88.8
2018-04-18T03:15:16.733Z,89.0
2018-04-18T03:16:16.997Z,89.0
2018-04-18T03:17:16.261Z,89.0
2018-04-18T03:18:16.533Z,89.1
2018-04-18T03:19:16.802Z,89.2
2018-04-18T03:20:17.073Z,89.3
2018-04-18T03:21:17.116Z,89.4
2018-04-18T03:22:16.382Z,89.2
2018-04-18T03:23:16.651Z,89.1
2018-04-18T03:24:16.913Z,89.1
2018-04-18T03:25:17.170Z,89.2
2018-04-18T03:26:16.433Z,88.8
2018-04-18T03:27:16.694Z,88.5
2018-04-18T03:28:16.962Z,88.5
2018-04-18T03:29:17.233Z,88.7
2018-04-18T03:30:16.522Z,89.0
2018-04-18T03:31:16.548Z,89.0
2018-04-18T03:32:16.817Z,89.0
2018-04-18T03:33:17.092Z,88.9
2018-04-18T03:34:16.339Z,88.8
2018-04-18T03:35:16.610Z,88.8
2018-04-18T03:36:16.867Z,88.7
2018-04-18T03:37:17.126Z,88.7
2018-04-18T03:38:16.386Z,88.8
2018-04-18T03:39:16.653Z,89.0
2018-04-18T03:40:16.915Z,89.0
2018-04-18T03:41:16.961Z,88.8
2018-04-18T03:42:17.223Z,88.7
2018-04-18T03:43:16.489Z,88.5
2018-04-18T03:44:16.752Z,88.2
2018-04-18T03:45:17.015Z,88.2
2018-04-18T03:46:16.287Z,88.4
2018-04-18T03:47:16.554Z,88.3
2018-04-18T03:48:16.809Z,88.1
2018-04-18T03:49:17.377Z,88.1
2018-04-18T03:50:16.646Z,88.0
2018-04-18T03:51:16.689Z,88.0
2018-04-18T03:52:16.952Z,88.0
2018-04-18T03:53:17.213Z,87.9
2018-04-18T03:54:16.473Z,87.9
2018-04-18T03:55:16.737Z,87.8
2018-04-18T03:56:17.009Z,87.9
2018-04-18T03:57:16.265Z,88.5
2018-04-18T03:58:16.536Z,88.5
2018-04-18T03:59:16.799Z,88.5
2018-04-18T04:00:17.069Z,88.5
2018-04-18T04:01:17.120Z,88.5
2018-04-18T04:02:16.403Z,88.6
2018-04-18T04:03:16.673Z,88.8
2018-04-18T04:04:16.938Z,89.1
2018-04-18T04:05:17.523Z,89.3
2018-04-18T04:06:16.786Z,89.0
2018-04-18T04:07:17.045Z,89.4
2018-04-18T04:08:16.310Z,89.0
2018-04-18T04:09:16.569Z,89.0
2018-04-18T04:10:16.838Z,89.5
2018-04-18T04:11:16.867Z,89.7
2018-04-18T04:12:17.143Z,89.5
2018-04-18T04:13:16.405Z,89.3
2018-04-18T04:14:16.671Z,89.3
2018-04-18T04:15:16.932Z,89.2
2018-04-18T04:16:17.199Z,89.2
2018-04-18T04:17:16.458Z,89.3
2018-04-18T04:18:16.719Z,89.4
2018-04-18T04:19:16.987Z,89.3
2018-04-18T04:20:17.261Z,89.2
2018-04-18T04:21:16.290Z,89.0
2018-04-18T04:22:16.556Z,89.0
2018-04-18T04:23:16.816Z,88.8
2018-04-18T04:24:17.079Z,88.8
2018-04-18T04:25:16.346Z,88.7
2018-04-18T04:26:16.609Z,88.7
2018-04-18T04:27:16.860Z,88.8
2018-04-18T04:28:17.119Z,88.8
2018-04-18T04:29:16.382Z,88.9
2018-04-18T04:30:16.971Z,88.9
2018-04-18T04:31:16.709Z,88.8
2018-04-18T04:32:16.973Z,88.8
2018-04-18T04:33:17.244Z,88.9
2018-04-18T04:34:16.506Z,89.1
2018-04-18T04:35:16.757Z,89.0
2018-04-18T04:36:17.013Z,89.2
2018-04-18T04:37:16.285Z,89.2
2018-04-18T04:38:16.551Z,89.0
2018-04-18T04:39:16.823Z,89.0
2018-04-18T04:40:17.099Z,88.4
2018-04-18T04:41:17.148Z,88.2
2018-04-18T04:42:16.408Z,88.3
2018-04-18T04:43:16.677Z,88.4
2018-04-18T04:44:16.949Z,88.0
2018-04-18T04:45:17.218Z,88.0
2018-04-18T04:46:16.479Z,87.7
2018-04-18T04:47:17.034Z,87.8
2018-04-18T04:48:16.281Z,87.8
2018-04-18T04:49:16.538Z,87.8
2018-04-18T04:50:16.800Z,87.9
2018-04-18T04:51:16.843Z,87.2
2018-04-18T04:52:17.097Z,87.4
2018-04-18T04:53:16.344Z,87.0
2018-04-18T04:54:16.615Z,87.0
2018-04-18T04:55:16.873Z,87.2
2018-04-18T04:56:17.148Z,87.2
2018-04-18T04:57:16.422Z,87.3
2018-04-18T04:58:16.681Z,87.2
2018-04-18T04:59:16.947Z,86.8
2018-04-18T05:00:17.215Z,86.7
2018-04-18T05:01:16.266Z,86.8
2018-04-18T05:02:16.524Z,86.6
2018-04-18T05:03:17.042Z,86.4
2018-04-18T05:04:16.302Z,86.5
2018-04-18T05:05:16.566Z,86.5
2018-04-18T05:06:16.827Z,86.5
2018-04-18T05:07:17.104Z,86.4
2018-04-18T05:08:16.430Z,86.3
2018-04-18T05:09:16.683Z,86.2
2018-04-18T05:10:16.996Z,86.1
2018-04-18T05:11:16.984Z,86.0
2018-04-18T05:12:17.243Z,86.5
2018-04-18T05:13:16.500Z,86.2
2018-04-18T05:14:16.768Z,85.8
2018-04-18T05:15:17.046Z,85.8
2018-04-18T05:16:16.312Z,85.7
2018-04-18T05:17:16.580Z,85.3
2018-04-18T05:18:16.845Z,85.2
2018-04-18T05:19:17.109Z,84.6
2018-04-18T05:20:16.384Z,84.7
2018-04-18T05:21:16.615Z,84.5
2018-04-18T05:22:16.899Z,83.9
2018-04-18T05:23:17.167Z,84.0
2018-04-18T05:24:16.422Z,84.0
2018-04-18T05:25:16.697Z,83.6
2018-04-18T05:26:16.959Z,83.3
2018-04-18T05:27:17.231Z,82.9
2018-04-18T05:28:16.495Z,82.4
2018-04-18T05:29:16.795Z,82.6
2018-04-18T05:30:17.158Z,82.6
2018-04-18T05:31:17.121Z,82.8
2018-04-18T05:32:16.386Z,82.7
2018-04-18T05:33:16.648Z,82.6
2018-04-18T05:34:16.934Z,82.5
2018-04-18T05:35:17.219Z,82.1
2018-04-18T05:36:16.509Z,82.5
2018-04-18T05:37:16.832Z,82.5
2018-04-18T05:38:17.327Z,82.3
2018-04-18T05:39:16.588Z,82.5
2018-04-18T05:40:16.869Z,82.7
2018-04-18T05:41:16.898Z,82.5
2018-04-18T05:42:17.164Z,82.0
2018-04-18T05:43:16.429Z,81.8
2018-04-18T05:44:16.711Z,81.7
2018-04-18T05:45:16.971Z,81.5
2018-04-18T05:46:17.239Z,81.2
2018-04-18T05:47:16.505Z,81.1
2018-04-18T05:48:16.768Z,81.1
2018-04-18T05:49:17.041Z,81.0
2018-04-18T05:50:16.313Z,81.8
2018-04-18T05:51:16.351Z,82.0
2018-04-18T05:52:16.618Z,81.8
2018-04-18T05:53:16.889Z,81.2
2018-04-18T05:54:17.167Z,81.0
2018-04-18T05:55:16.510Z,80.5
2018-04-18T05:56:16.778Z,80.6
2018-04-18T05:57:17.033Z,79.9
2018-04-18T05:58:16.293Z,80.0
2018-04-18T05:59:16.557Z,79.9
2018-04-18T06:00:16.826Z,80.2
2018-04-18T06:01:16.873Z,80.2
2018-04-18T06:02:17.138Z,80.0
2018-04-18T06:03:16.389Z,79.5
2018-04-18T06:04:16.652Z,79.0
2018-04-18T06:05:16.915Z,78.8
2018-04-18T06:06:17.261Z,79.0
2018-04-18T06:07:16.549Z,78.3
2018-04-18T06:08:16.810Z,78.3
2018-04-18T06:09:17.240Z,78.3
2018-04-18T06:10:16.509Z,77.8
2018-04-18T06:11:16.649Z,77.3
2018-04-18T06:12:16.929Z,77.1
2018-04-18T06:13:17.197Z,77.1
2018-04-18T06:14:16.459Z,77.0
2018-04-18T06:15:16.720Z,77.8
2018-04-18T06:16:16.986Z,77.9
2018-04-18T06:17:17.288Z,77.4
2018-04-18T06:18:16.555Z,77.1
2018-04-18T06:19:16.924Z,76.8
2018-04-18T06:20:17.194Z,76.6
2018-04-18T06:21:17.238Z,75.3
2018-04-18T06:22:16.501Z,75.7
2018-04-18T06:23:16.761Z,76.0
2018-04-18T06:24:17.037Z,76.4
2018-04-18T06:25:16.297Z,76.2
2018-04-18T06:26:16.567Z,75.8
2018-04-18T06:27:16.889Z,74.8
2018-04-18T06:28:17.165Z,74.8
2018-04-18T06:29:16.435Z,73.8
2018-04-18T06:30:16.711Z,72.5
2018-04-18T06:31:16.735Z,72.5
2018-04-18T06:32:16.998Z,72.6
2018-04-18T06:33:16.258Z,72.9
2018-04-18T06:34:16.526Z,72.3
2018-04-18T06:35:16.795Z,71.8
2018-04-18T06:36:17.064Z,71.3
2018-04-18T06:37:16.316Z,71.4
2018-04-18T06:38:16.576Z,71.0
2018-04-18T06:39:16.839Z,70.8
2018-04-18T06:40:17.119Z,70.8
2018-04-18T06:41:17.149Z,69.6
2018-04-18T06:42:16.412Z,69.2
2018-04-18T06:43:16.669Z,67.4
2018-04-18T06:44:16.931Z,66.9
2018-04-18T06:45:17.201Z,66.9
2018-04-18T06:46:16.479Z,66.7
2018-04-18T06:47:16.745Z,66.0
2018-04-18T06:48:17.006Z,64.9
2018-04-18T06:49:16.269Z,64.6
2018-04-18T06:50:16.545Z,63.2
2018-04-18T06:51:16.663Z,62.6
2018-04-18T06:52:16.943Z,62.5
2018-04-18T06:53:17.199Z,62.0
2018-04-18T06:54:16.467Z,61.0
2018-04-18T06:55:16.742Z,61.1
2018-04-18T06:56:17.007Z,60.1
2018-04-18T06:57:16.271Z,60.0
2018-04-18T06:58:16.531Z,59.2
2018-04-18T06:59:16.794Z,58.6
2018-04-18T07:00:17.086Z,58.5
2018-04-18T07:01:17.113Z,59.9
2018-04-18T07:02:16.386Z,61.1
2018-04-18T07:03:16.647Z,60.9
2018-04-18T07:04:16.917Z,60.1
2018-04-18T07:05:17.203Z,60.1
2018-04-18T07:06:16.468Z,59.3
2018-04-18T07:07:16.740Z,59.0
2018-04-18T07:08:17.013Z,57.8
2018-04-18T07:09:16.279Z,57.8
2018-04-18T07:10:16.547Z,57.5
2018-04-18T07:11:16.679Z,57.9
2018-04-18T07:12:16.987Z,57.1
2018-04-18T07:13:17.249Z,56.6
2018-04-18T07:14:16.518Z,57.5
2018-04-18T07:15:16.784Z,57.0
2018-04-18T07:16:17.044Z,56.2
2018-04-18T07:17:16.316Z,54.9
2018-04-18T07:18:16.576Z,53.0
2018-04-18T07:19:16.832Z,52.0
2018-04-18T07:20:17.124Z,51.8
2018-04-18T07:21:17.145Z,50.2
2018-04-18T07:22:16.411Z,51.5
2018-04-18T07:23:16.678Z,51.1
2018-04-18T07:24:16.951Z,49.7
2018-04-18T07:25:17.210Z,48.8
2018-04-18T07:26:16.480Z,48.9
2018-04-18T07:27:16.746Z,48.7
2018-04-18T07:28:17.010Z,49.2
2018-04-18T07:29:16.267Z,49.0
2018-04-18T07:30:16.532Z,49.0
2018-04-18T07:31:16.616Z,47.8
2018-04-18T07:32:16.881Z,48.4
2018-04-18T07:33:17.158Z,50.0
2018-04-18T07:34:16.532Z,49.5
2018-04-18T07:35:16.794Z,48.4
2018-04-18T07:36:17.059Z,46.5
2018-04-18T07:37:16.326Z,46.5
2018-04-18T07:38:16.602Z,46.1
2018-04-18T07:39:16.868Z,46.9
2018-04-18T07:40:17.168Z,46.2
2018-04-18T07:41:17.170Z,45.5
2018-04-18T07:42:16.426Z,45.2
2018-04-18T07:43:16.679Z,44.8
2018-04-18T07:44:16.942Z,45.8
2018-04-18T07:45:17.210Z,46.1
2018-04-18T07:46:16.480Z,46.1
2018-04-18T07:47:16.736Z,46.0
2018-04-18T07:48:16.988Z,45.5
2018-04-18T07:49:17.258Z,43.9
2018-04-18T07:50:16.526Z,45.6
2018-04-18T07:51:16.576Z,45.6
2018-04-18T07:52:16.837Z,44.9
2018-04-18T07:53:17.111Z,45.9
2018-04-18T07:54:16.379Z,45.2
2018-04-18T07:55:16.634Z,44.2
2018-04-18T07:56:16.891Z,44.7
2018-04-18T07:57:17.165Z,44.1
2018-04-18T07:58:16.420Z,43.1
2018-04-18T07:59:16.689Z,43.2
2018-04-18T08:00:16.960Z,42.5
2018-04-18T08:01:17.006Z,41.8
2018-04-18T08:02:16.289Z,43.3
2018-04-18T08:03:16.554Z,43.7
2018-04-18T08:04:16.820Z,43.2
2018-04-18T08:05:17.086Z,43.8
2018-04-18T08:06:16.350Z,43.5
2018-04-18T08:07:16.616Z,42.3
2018-04-18T08:08:16.891Z,41.5
2018-04-18T08:09:17.154Z,42.3
2018-04-18T08:10:16.417Z,41.6
2018-04-18T08:11:16.463Z,41.2
2018-04-18T08:12:16.733Z,42.9
2018-04-18T08:13:16.975Z,40.9
2018-04-18T08:14:17.244Z,41.2
2018-04-18T08:15:16.687Z,40.9
2018-04-18T08:16:17.235Z,41.2
2018-04-18T08:17:16.509Z,40.5
2018-04-18T08:18:16.771Z,40.8
2018-04-18T08:19:17.035Z,40.1
2018-04-18T08:20:16.325Z,39.2
2018-04-18T08:21:16.405Z,38.1
2018-04-18T08:22:16.671Z,38.1
2018-04-18T08:23:16.942Z,38.4
2018-04-18T08:24:17.228Z,38.7
2018-04-18T08:25:16.492Z,38.6
2018-04-18T08:26:16.749Z,38.1
2018-04-18T08:27:17.008Z,38.1
2018-04-18T08:28:16.269Z,38.2
2018-04-18T08:29:16.532Z,37.2
2018-04-18T08:30:16.824Z,36.5
2018-04-18T08:31:16.862Z,37.8
2018-04-18T08:32:17.131Z,39.2
2018-04-18T08:33:16.396Z,38.5
2018-04-18T08:34:16.663Z,36.9
2018-04-18T08:35:16.930Z,36.2
2018-04-18T08:36:17.206Z,36.6
2018-04-18T08:37:16.480Z,35.5
2018-04-18T08:38:16.746Z,35.0
2018-04-18T08:39:17.016Z,34.2
2018-04-18T08:40:16.286Z,34.5
2018-04-18T08:41:16.321Z,35.0
2018-04-18T08:42:16.590Z,35.5
2018-04-18T08:43:16.852Z,35.5
2018-04-18T08:44:17.106Z,34.8
2018-04-18T08:45:16.372Z,35.0
2018-04-18T08:46:16.638Z,34.1
2018-04-18T08:47:16.907Z,34.1
2018-04-18T08:48:17.168Z,33.0
2018-04-18T08:49:16.437Z,32.2
2018-04-18T08:50:16.719Z,32.0
2018-04-18T08:51:16.745Z,32.4
2018-04-18T08:52:17.008Z,29.9
2018-04-18T08:53:16.256Z,29.2
2018-04-18T08:54:16.516Z,27.9
2018-04-18T08:55:16.775Z,26.2
2018-04-18T08:56:17.043Z,25.5
2018-04-18T08:57:16.309Z,26.9
2018-04-18T08:58:16.579Z,24.6
2018-04-18T08:59:16.861Z,26.5
2018-04-18T09:00:17.131Z,27.1
2018-04-18T09:01:17.188Z,25.3
2018-04-18T09:02:16.498Z,24.2
2018-04-18T09:03:16.758Z,24.6
2018-04-18T09:04:17.019Z,23.7
2018-04-18T09:05:16.280Z,23.6
2018-04-18T09:06:16.543Z,24.9
2018-04-18T09:07:16.810Z,27.1
2018-04-18T09:08:17.071Z,25.2
2018-04-18T09:09:16.337Z,25.1
2018-04-18T09:10:16.618Z,25.3
2018-04-18T09:11:16.655Z,24.7
2018-04-18T09:12:16.936Z,23.6
2018-04-18T09:13:17.198Z,22.8
2018-04-18T09:14:16.459Z,23.1
2018-04-18T09:15:16.726Z,23.2
2018-04-18T09:16:16.987Z,23.3
2018-04-18T09:17:17.260Z,22.9
2018-04-18T09:18:16.523Z,24.1
2018-04-18T09:19:16.784Z,26.6
2018-04-18T09:20:17.052Z,27.6
2018-04-18T09:21:17.090Z,25.4
2018-04-18T09:22:16.362Z,24.3
2018-04-18T09:23:16.624Z,24.1
2018-04-18T09:24:16.891Z,23.2
2018-04-18T09:25:17.168Z,23.9
2018-04-18T09:26:16.447Z,23.9
2018-04-18T09:27:16.740Z,24.4
2018-04-18T09:28:17.004Z,24.1
2018-04-18T09:29:16.267Z,24.4
2018-04-18T09:30:16.549Z,23.5
2018-04-18T09:31:16.600Z,23.4
2018-04-18T09:32:16.861Z,22.4
2018-04-18T09:33:17.124Z,22.1
2018-04-18T09:34:16.390Z,23.6
2018-04-18T09:35:16.656Z,23.6
2018-04-18T09:36:16.918Z,22.4
2018-04-18T09:37:17.174Z,22.4
2018-04-18T09:38:16.433Z,22.8
2018-04-18T09:39:16.687Z,22.1
2018-04-18T09:40:16.956Z,21.6
2018-04-18T09:41:16.986Z,22.5
2018-04-18T09:42:17.249Z,23.1
2018-04-18T09:43:16.509Z,23.4
2018-04-18T09:44:16.770Z,22.8
2018-04-18T09:45:17.036Z,22.9
2018-04-18T09:46:16.408Z,22.0
2018-04-18T09:47:16.681Z,22.1
2018-04-18T09:48:16.948Z,22.1
2018-04-18T09:49:17.209Z,22.1
2018-04-18T09:50:16.485Z,21.4
2018-04-18T09:51:16.897Z,21.6
2018-04-18T09:52:17.185Z,22.0
2018-04-18T09:53:16.447Z,21.8
2018-04-18T09:54:16.712Z,22.9
2018-04-18T09:55:16.982Z,22.6
2018-04-18T09:56:17.237Z,22.4
2018-04-18T09:57:16.504Z,23.3
2018-04-18T09:58:16.894Z,22.4
2018-04-18T09:59:17.176Z,21.1
2018-04-18T10:00:16.460Z,20.7
2018-04-18T10:01:16.508Z,20.9
2018-04-18T10:02:16.771Z,20.6
2018-04-18T10:03:17.025Z,20.6
2018-04-18T10:04:16.291Z,20.6
2018-04-18T10:05:16.564Z,20.7
2018-04-18T10:06:16.828Z,20.4
2018-04-18T10:07:17.090Z,20.3
2018-04-18T10:08:16.348Z,20.5
2018-04-18T10:09:16.611Z,20.6
2018-04-18T10:10:16.965Z,20.6
2018-04-18T10:11:16.919Z,20.4
2018-04-18T10:12:17.191Z,20.5
2018-04-18T10:13:16.459Z,21.1
2018-04-18T10:14:16.716Z,21.6
2018-04-18T10:15:16.993Z,21.1
2018-04-18T10:16:17.304Z,20.6
2018-04-18T10:17:16.575Z,20.6
2018-04-18T10:18:16.846Z,21.1
2018-04-18T10:19:17.116Z,20.6
2018-04-18T10:20:16.377Z,20.9
2018-04-18T10:21:16.425Z,22.6
2018-04-18T10:22:16.685Z,22.2
2018-04-18T10:23:16.937Z,22.0
2018-04-18T10:24:17.194Z,23.1
2018-04-18T10:25:16.469Z,22.5
2018-04-18T10:26:16.733Z,23.0
2018-04-18T10:27:16.997Z,22.1
2018-04-18T10:28:16.269Z,21.4
2018-04-18T10:29:16.533Z,21.6
2018-04-18T10:30:16.810Z,21.6
2018-04-18T10:31:16.841Z,21.4
2018-04-18T10:32:17.105Z,21.3
2018-04-18T10:33:16.366Z,21.6
2018-04-18T10:34:16.700Z,21.5
2018-04-18T10:35:16.963Z,21.9
2018-04-18T10:36:17.229Z,21.6
2018-04-18T10:37:16.505Z,21.6
2018-04-18T10:38:16.772Z,23.2
2018-04-18T10:39:17.035Z,22.2
2018-04-18T10:40:16.303Z,22.4
2018-04-18T10:41:16.342Z,21.7
2018-04-18T10:42:16.600Z,22.9
2018-04-18T10:43:16.923Z,21.6
2018-04-18T10:44:17.208Z,22.7
2018-04-18T10:45:16.476Z,21.8
2018-04-18T10:46:16.739Z,21.7
2018-04-18T10:47:17.003Z,22.4
2018-04-18T10:48:16.263Z,22.8
2018-04-18T10:49:16.542Z,21.3
2018-04-18T10:50:16.807Z,21.2
2018-04-18T10:51:16.839Z,21.8
2018-04-18T10:52:17.094Z,22.4
2018-04-18T10:53:16.352Z,23.0
2018-04-18T10:54:16.607Z,22.1
2018-04-18T10:55:16.876Z,21.5
2018-04-18T10:56:17.142Z,21.5
2018-04-18T10:57:16.412Z,20.8
2018-04-18T10:58:16.679Z,20.8
2018-04-18T10:59:16.945Z,21.1
2018-04-18T11:00:17.219Z,21.4
2018-04-18T11:01:16.391Z,21.3
2018-04-18T11:02:16.649Z,21.6
2018-04-18T11:03:16.927Z,21.1
2018-04-18T11:04:17.200Z,21.3
2018-04-18T11:05:16.473Z,21.1
2018-04-18T11:06:16.738Z,20.6
2018-04-18T11:07:16.994Z,20.6
2018-04-18T11:08:16.259Z,21.2
2018-04-18T11:09:16.527Z,20.6
2018-04-18T11:10:16.800Z,20.2
2018-04-18T11:11:16.836Z,20.6
2018-04-18T11:12:17.102Z,20.6
2018-04-18T11:13:16.427Z,20.6
2018-04-18T11:14:16.742Z,19.8
2018-04-18T11:15:17.007Z,19.7
2018-04-18T11:16:16.268Z,19.8
2018-04-18T11:17:16.585Z,20.8
2018-04-18T11:18:16.851Z,21.1
2018-04-18T11:19:17.120Z,21.2
2018-04-18T11:20:16.388Z,20.9
2018-04-18T11:21:16.425Z,20.6
2018-04-18T11:22:16.694Z,21.5
2018-04-18T11:23:16.950Z,21.4
2018-04-18T11:24:17.207Z,21.4
2018-04-18T11:25:16.488Z,21.6
2018-04-18T11:26:16.744Z,21.4
2018-04-18T11:27:17.008Z,21.2
2018-04-18T11:28:16.276Z,20.6
2018-04-18T11:29:16.531Z,21.2
2018-04-18T11:30:16.821Z,21.1
2018-04-18T11:31:16.849Z,20.8
2018-04-18T11:32:17.112Z,21.8
2018-04-18T11:33:16.383Z,21.0
2018-04-18T11:34:16.645Z,20.7
2018-04-18T11:35:16.911Z,20.5
2018-04-18T11:36:17.168Z,20.4
2018-04-18T11:37:16.446Z,20.6
2018-04-18T11:38:16.714Z,21.2
2018-04-18T11:39:16.973Z,21.7
2018-04-18T11:40:17.277Z,22.0
2018-04-18T11:41:16.283Z,21.6
2018-04-18T11:42:16.553Z,21.7
2018-04-18T11:43:16.819Z,21.9
2018-04-18T11:44:17.093Z,22.3
2018-04-18T11:45:16.360Z,21.9
2018-04-18T11:46:16.644Z,20.8
2018-04-18T11:47:16.909Z,21.4
2018-04-18T11:48:17.180Z,22.2
2018-04-18T11:49:16.444Z,22.0
2018-04-18T11:50:16.708Z,22.1
2018-04-18T11:51:16.765Z,22.6
2018-04-18T11:52:17.046Z,23.0
2018-04-18T11:53:16.307Z,22.4
2018-04-18T11:54:16.573Z,22.6
2018-04-18T11:55:16.845Z,22.6
2018-04-18T11:56:17.105Z,22.4
2018-04-18T11:57:16.368Z,22.8
2018-04-18T11:58:16.626Z,22.9
2018-04-18T11:59:16.893Z,23.4
2018-04-18T12:00:17.171Z,23.9
2018-04-18T12:01:17.201Z,24.5
2018-04-18T12:02:16.541Z,24.3
2018-04-18T12:03:16.812Z,23.9
2018-04-18T12:04:17.072Z,23.1
2018-04-18T12:05:16.344Z,23.4
2018-04-18T12:06:16.609Z,23.4
2018-04-18T12:07:16.878Z,23.8
2018-04-18T12:08:17.140Z,24.2
2018-04-18T12:09:16.400Z,23.8
2018-04-18T12:10:16.675Z,24.0
2018-04-18T12:11:16.721Z,24.6
2018-04-18T12:12:16.978Z,23.7
2018-04-18T12:13:17.266Z,23.4
2018-04-18T12:14:16.527Z,23.1
2018-04-18T12:15:16.781Z,23.6
2018-04-18T12:16:17.040Z,24.0
2018-04-18T12:17:16.303Z,23.6
2018-04-18T12:18:16.564Z,23.9
2018-04-18T12:19:16.841Z,23.9
2018-04-18T12:20:17.114Z,23.9
2018-04-18T12:21:17.153Z,24.1
2018-04-18T12:22:16.415Z,24.6
2018-04-18T12:23:16.678Z,24.4
2018-04-18T12:24:16.942Z,24.4
2018-04-18T12:25:17.206Z,23.9
2018-04-18T12:26:16.474Z,23.9
2018-04-18T12:27:16.728Z,23.9
2018-04-18T12:28:17.004Z,24.1
2018-04-18T12:29:16.282Z,24.2
2018-04-18T12:30:16.569Z,24.1
2018-04-18T12:31:16.592Z,24.6
2018-04-18T12:32:16.860Z,24.1
2018-04-18T12:33:17.127Z,23.6
2018-04-18T12:34:16.386Z,23.6
2018-04-18T12:35:16.651Z,23.9
2018-04-18T12:36:16.926Z,24.0
2018-04-18T12:37:17.191Z,23.8
2018-04-18T12:38:16.448Z,24.8
2018-04-18T12:39:16.714Z,25.2
2018-04-18T12:40:16.988Z,25.1
2018-04-18T12:41:17.037Z,25.0
2018-04-18T12:42:16.302Z,24.2
2018-04-18T12:43:16.570Z,23.4
2018-04-18T12:44:16.837Z,23.5
2018-04-18T12:45:17.104Z,23.7
2018-04-18T12:46:16.365Z,23.7
2018-04-18T12:47:16.628Z,24.0
2018-04-18T12:48:16.887Z,22.9
2018-04-18T12:49:17.156Z,23.1
2018-04-18T12:50:16.432Z,23.7
2018-04-18T12:51:16.482Z,23.5
2018-04-18T12:52:16.744Z,23.4
2018-04-18T12:53:17.016Z,23.6
2018-04-18T12:54:16.289Z,23.4
2018-04-18T12:55:16.556Z,23.9
2018-04-18T12:56:16.816Z,23.8
2018-04-18T12:57:17.074Z,23.7
2018-04-18T12:58:16.335Z,24.2
2018-04-18T12:59:16.603Z,23.3
2018-04-18T13:00:16.873Z,23.0
2018-04-18T13:01:16.921Z,23.8
2018-04-18T13:02:17.186Z,23.7
2018-04-18T13:03:16.448Z,23.4
2018-04-18T13:04:16.713Z,24.1
2018-04-18T13:05:16.983Z,24.4
2018-04-18T13:06:17.247Z,23.8
2018-04-18T13:07:16.506Z,24.1
2018-04-18T13:08:16.769Z,24.1
2018-04-18T13:09:17.037Z,24.4
2018-04-18T13:10:16.302Z,22.4
2018-04-18T13:11:16.359Z,22.1
2018-04-18T13:12:16.684Z,22.1
2018-04-18T13:13:16.950Z,22.6
2018-04-18T13:14:17.215Z,22.9
2018-04-18T13:15:16.481Z,22.7
2018-04-18T13:16:16.756Z,23.5
2018-04-18T13:17:17.028Z,23.0
2018-04-18T13:18:16.365Z,23.1